createdAt,value
2018-11-26T04:14:14.495Z,62.63
2018-11-26T04:16:42.948Z,62.20
2018-11-26T06:50:22.311Z,50.10
2018-11-26T06:52:50.753Z,56.17
2018-11-26T06:55:20.296Z,54.07
2018-11-26T06:57:48.745Z,58.10
2018-11-26T07:00:18.434Z,57.47
2018-11-26T07:02:46.871Z,55.43
2018-11-26T09:49:58.427Z,51.77
2018-11-26T09:52:26.827Z,48.17
2018-11-26T09:54:55.202Z,54.97
2018-11-26T09:57:23.651Z,50.83
2018-11-26T09:59:52.023Z,53.67
2018-11-26T10:02:20.430Z,52.43
2018-11-26T10:04:48.832Z,54.63
2018-11-26T10:07:17.262Z,52.07
2018-11-26T10:09:45.647Z,57.70
2018-11-26T10:12:14.051Z,46.67
2018-11-26T10:14:42.475Z,48.47
2018-11-26T10:17:10.895Z,47.33
2018-11-26T10:19:39.282Z,47.83
2018-11-26T10:22:07.732Z,50.50
2018-11-26T10:24:36.146Z,50.00
2018-11-26T10:27:04.562Z,52.80
2018-11-26T10:29:32.950Z,49.40
2018-11-26T10:32:01.406Z,50.77
2018-11-26T10:34:29.787Z,49.13
2018-11-26T10:36:58.279Z,46.37
2018-11-26T10:39:26.699Z,48.50
2018-11-26T10:41:55.134Z,50.13
2018-11-26T10:44:23.580Z,52.37
2018-11-26T10:46:51.977Z,49.07
2018-11-26T10:49:20.376Z,55.37
2018-11-26T10:51:48.800Z,48.73
2018-11-26T10:54:17.241Z,51.33
2018-11-26T10:56:45.677Z,48.87
2018-11-26T10:59:14.133Z,48.10
2018-11-26T11:01:46.663Z,50.20
2018-11-26T11:04:15.056Z,50.30
2018-11-26T11:06:43.461Z,48.30
2018-11-26T11:09:11.845Z,47.90
2018-11-26T11:11:40.260Z,49.20
2018-11-26T11:14:08.725Z,43.47
2018-11-26T11:16:37.180Z,46.33
2018-11-26T11:19:05.649Z,47.97
2018-11-26T11:21:34.067Z,48.10
2018-11-26T11:24:02.448Z,44.77
2018-11-26T11:26:30.866Z,47.50
2018-11-26T11:28:59.250Z,51.13
2018-11-26T11:31:27.661Z,47.13
2018-11-26T11:33:56.095Z,47.37
2018-11-26T11:36:24.576Z,47.30
2018-11-26T11:38:53.081Z,45.73
2018-11-26T11:41:21.538Z,48.57
2018-11-26T11:43:49.950Z,46.87
2018-11-26T11:46:18.359Z,47.63
2018-11-26T11:48:46.905Z,46.37
2018-11-26T11:51:15.301Z,48.13
2018-11-26T11:53:43.762Z,45.90
2018-11-26T11:56:12.193Z,46.23
2018-11-26T11:58:40.605Z,47.73
2018-11-26T12:01:10.692Z,46.40
2018-11-26T12:03:37.873Z,44.60
2018-11-26T12:06:06.370Z,50.70
2018-11-26T12:08:34.825Z,47.10
2018-11-26T12:11:03.232Z,48.63
2018-11-26T12:13:31.636Z,47.23
2018-11-26T12:16:00.043Z,50.93
2018-11-26T12:18:28.438Z,50.17
2018-11-26T12:20:56.868Z,50.00
2018-11-26T12:23:25.265Z,45.47
2018-11-26T12:25:53.666Z,48.13
2018-11-26T12:28:22.116Z,47.37
2018-11-26T12:30:50.553Z,46.03
2018-11-26T12:33:18.973Z,45.83
2018-11-26T12:35:47.379Z,47.97
2018-11-26T12:38:15.807Z,45.73
2018-11-26T12:40:44.315Z,46.07
2018-11-26T12:43:12.722Z,45.57
2018-11-26T12:45:41.101Z,45.07
2018-11-26T12:48:09.522Z,49.03
2018-11-26T12:50:37.942Z,48.80
2018-11-26T12:53:06.726Z,48.60
2018-11-26T12:55:37.461Z,47.93
2018-11-26T12:58:07.313Z,49.53
2018-11-26T13:00:36.745Z,45.10
2018-11-26T13:03:10.512Z,50.67
2018-11-26T13:05:38.948Z,52.93
2018-11-26T13:08:08.005Z,49.13
2018-11-26T13:10:36.903Z,45.53
2018-11-26T13:13:05.952Z,45.50
2018-11-26T13:15:34.393Z,47.43
2018-11-26T13:18:02.857Z,43.07
2018-11-26T13:20:31.677Z,45.20
2018-11-26T13:23:00.091Z,48.67
2018-11-26T13:25:31.774Z,44.47
2018-11-26T13:28:01.494Z,44.43
2018-11-26T13:30:43.229Z,41.10
2018-11-26T13:33:16.155Z,45.27
2018-11-26T13:35:45.558Z,47.17
2018-11-26T13:38:14.109Z,47.30
2018-11-26T13:40:42.528Z,46.73
2018-11-26T13:43:13.454Z,52.23
2018-11-26T13:45:43.373Z,45.20
2018-11-26T13:48:13.284Z,46.57
2018-11-26T13:50:46.485Z,41.60
2018-11-26T13:53:14.882Z,45.03
2018-11-26T13:55:43.313Z,42.47
2018-11-26T13:58:11.730Z,47.23
2018-11-26T14:00:40.176Z,46.10
2018-11-26T14:03:08.637Z,43.60
2018-11-26T14:05:37.042Z,43.17
2018-11-26T14:08:05.843Z,44.10
2018-11-26T14:10:34.269Z,42.83
2018-11-26T14:13:11.181Z,42.00
2018-11-26T14:15:39.755Z,48.03
2018-11-26T14:18:08.168Z,43.67
2018-11-26T14:20:36.558Z,40.00
2018-11-26T14:23:05.128Z,42.13
2018-11-26T14:25:33.604Z,43.73
2018-11-26T14:28:02.012Z,40.27
2018-11-26T14:30:30.718Z,42.83
2018-11-26T14:32:59.161Z,40.70
2018-11-26T14:35:27.653Z,42.77
2018-11-26T14:38:01.520Z,40.90
2018-11-26T14:40:31.237Z,44.07
2018-11-26T14:42:59.631Z,40.40
2018-11-26T14:45:28.054Z,38.93
2018-11-26T14:47:56.455Z,46.90
2018-11-26T14:50:24.972Z,44.23
2018-11-26T14:52:53.376Z,46.20
2018-11-26T14:55:24.148Z,44.83
2018-11-26T14:57:52.577Z,43.73
2018-11-26T15:00:21.400Z,49.40
2018-11-26T15:02:49.842Z,47.77
2018-11-26T15:05:18.288Z,45.90
2018-11-26T15:07:46.750Z,48.70
2018-11-26T15:10:18.232Z,47.50
2018-11-26T15:12:46.923Z,48.30
2018-11-26T15:15:16.627Z,50.87
2018-11-26T15:17:45.602Z,49.40
2018-11-26T15:20:18.999Z,45.40
2018-11-26T15:22:47.768Z,52.70
2018-11-26T15:25:17.510Z,47.43
2018-11-26T15:27:45.951Z,46.53
2018-11-26T15:30:17.518Z,47.10
2018-11-26T15:32:45.977Z,50.87
2018-11-26T15:35:15.476Z,50.33
2018-11-26T15:37:44.007Z,46.10
2018-11-26T15:40:13.521Z,50.27
2018-11-26T15:42:41.989Z,48.03
2018-11-26T15:45:22.260Z,49.97
2018-11-26T15:47:51.667Z,51.60
2018-11-26T15:50:20.214Z,30.80
2018-11-26T15:52:48.658Z,52.57
2018-11-26T15:55:18.499Z,53.97
2018-11-26T15:57:46.949Z,48.17
2018-11-26T16:00:24.571Z,47.00
2018-11-26T16:02:53.361Z,46.83
2018-11-26T16:05:26.810Z,48.53
2018-11-26T16:07:57.748Z,51.00
2018-11-26T16:10:26.203Z,48.03
2018-11-26T16:12:56.956Z,49.73
2018-11-26T16:15:27.899Z,49.70
2018-11-26T16:17:58.096Z,46.87
2018-11-26T16:47:30.495Z,48.53
2018-11-26T16:49:58.893Z,46.57
2018-11-26T16:52:27.370Z,41.93
2018-11-26T16:54:55.756Z,44.80
2018-11-26T16:57:24.165Z,42.93
2018-11-26T16:59:52.566Z,36.57
2018-11-26T17:02:21.029Z,39.90
2018-11-26T17:04:49.416Z,42.53
2018-11-26T17:07:17.880Z,44.07
2018-11-26T17:09:46.292Z,40.03
2018-11-26T17:12:14.711Z,40.57
2018-11-26T17:14:43.171Z,41.70
2018-11-26T17:17:11.569Z,39.70
2018-11-26T17:19:40.017Z,39.33
2018-11-26T17:22:08.427Z,39.77
2018-11-26T17:24:36.903Z,39.57
2018-11-26T17:27:05.431Z,40.80
2018-11-26T17:29:33.878Z,39.40
2018-11-26T17:32:02.272Z,36.63
2018-11-26T17:34:30.693Z,31.67
2018-11-26T17:36:59.071Z,36.93
2018-11-26T17:39:27.456Z,36.07
2018-11-26T17:41:55.858Z,36.83
2018-11-26T17:44:24.305Z,38.80
2018-11-26T17:46:52.718Z,35.13
2018-11-26T17:49:21.164Z,36.13
2018-11-26T17:51:49.597Z,32.63
2018-11-26T17:54:18.018Z,36.10
2018-11-26T17:56:46.417Z,33.70
2018-11-26T17:59:14.828Z,35.67
2018-11-26T18:01:45.174Z,39.07
2018-11-26T18:04:13.600Z,34.40
2018-11-26T18:06:47.262Z,32.67
2018-11-26T18:09:11.883Z,37.10
2018-11-26T18:11:40.297Z,36.93
2018-11-26T18:14:08.758Z,37.23
2018-11-26T18:16:37.206Z,38.23
2018-11-26T18:19:06.394Z,35.47
2018-11-26T18:21:34.813Z,35.03
2018-11-26T18:24:03.305Z,34.07
2018-11-26T18:26:31.740Z,34.47
2018-11-26T18:29:00.178Z,38.00
2018-11-26T18:31:28.582Z,34.83
2018-11-26T18:33:57.044Z,34.67
2018-11-26T18:36:25.449Z,35.13
2018-11-26T18:38:53.908Z,34.40
2018-11-26T18:41:22.345Z,36.30
2018-11-26T18:43:50.753Z,35.63
2018-11-26T18:46:19.169Z,33.60
2018-11-26T18:48:47.570Z,36.53
2018-11-26T18:51:15.985Z,32.40
2018-11-26T18:53:44.381Z,36.20
2018-11-26T18:56:12.769Z,35.33
2018-11-26T18:58:41.216Z,37.77
2018-11-26T19:01:09.671Z,37.17
2018-11-26T19:03:38.079Z,35.37
2018-11-26T19:06:06.762Z,35.37
2018-11-26T19:08:35.172Z,33.97
2018-11-26T19:11:07.134Z,35.97
2018-11-26T19:13:40.924Z,37.73
2018-11-26T19:16:14.439Z,36.90
2018-11-26T19:18:42.843Z,34.07
2018-11-26T19:21:11.297Z,35.10
2018-11-26T19:23:39.753Z,36.13
2018-11-26T19:26:08.184Z,33.60
2018-11-26T19:28:36.654Z,36.73
2018-11-26T19:31:06.139Z,36.40
2018-11-26T19:33:34.604Z,36.20
2018-11-26T19:36:03.027Z,37.40
2018-11-26T19:38:31.453Z,37.50
2018-11-26T19:40:59.917Z,38.30
2018-11-26T19:43:28.369Z,39.73
2018-11-26T19:45:56.834Z,39.00
2018-11-26T19:48:25.246Z,37.27
2018-11-26T19:50:53.665Z,38.23
2018-11-26T19:53:22.118Z,37.97
2018-11-26T19:55:51.510Z,37.43
2018-11-26T19:58:19.043Z,37.10
2018-11-26T20:00:47.461Z,37.17
2018-11-26T20:03:20.519Z,40.37
2018-11-26T20:06:03.867Z,37.70
2018-11-26T20:08:32.329Z,37.90
2018-11-26T20:11:00.765Z,37.43
2018-11-26T20:13:29.158Z,37.07
2018-11-26T20:15:57.612Z,36.60
2018-11-26T20:18:28.475Z,35.27
2018-11-26T20:20:54.523Z,36.87
2018-11-26T20:23:22.962Z,40.17
2018-11-26T20:25:52.231Z,38.63
2018-11-26T20:28:19.847Z,40.50
2018-11-26T20:30:48.269Z,36.90
2018-11-26T20:33:16.761Z,40.23
2018-11-26T20:35:45.237Z,35.70
2018-11-26T20:38:14.951Z,39.00
2018-11-26T20:40:43.472Z,38.70
2018-11-26T20:43:12.836Z,37.33
2018-11-26T20:45:42.833Z,39.37
2018-11-26T20:48:11.550Z,39.83
2018-11-26T20:50:42.098Z,41.70
2018-11-26T20:53:11.048Z,40.27
2018-11-26T20:55:39.484Z,39.43
2018-11-26T20:58:07.894Z,40.30
2018-11-26T21:00:36.355Z,39.53
2018-11-26T21:03:08.337Z,37.40
2018-11-26T21:05:36.866Z,40.53
2018-11-26T21:08:05.372Z,39.37
2018-11-26T21:10:33.766Z,38.77
2018-11-26T21:13:02.153Z,40.90
2018-11-26T21:15:30.552Z,39.40
2018-11-26T21:17:59.746Z,39.67
2018-11-26T21:20:36.061Z,35.67
2018-11-26T21:23:08.016Z,38.83
2018-11-26T21:25:36.453Z,34.50
2018-11-26T21:28:05.142Z,37.97
2018-11-26T21:30:33.574Z,37.30
2018-11-26T21:33:02.008Z,37.33
2018-11-26T21:35:30.421Z,37.83
2018-11-26T21:37:58.844Z,32.27
2018-11-26T21:40:27.250Z,35.77
2018-11-26T21:42:55.654Z,37.63
2018-11-26T21:45:30.566Z,34.50
2018-11-26T21:47:58.985Z,36.40
2018-11-26T21:50:27.384Z,35.53
2018-11-26T21:52:55.795Z,37.60
2018-11-26T21:55:24.205Z,36.53
2018-11-26T21:57:52.669Z,35.53
2018-11-26T22:00:22.503Z,36.33
2018-11-26T22:02:51.189Z,33.97
2018-11-26T22:05:19.657Z,34.33
2018-11-26T22:07:48.118Z,39.40
2018-11-26T22:10:18.544Z,34.87
2018-11-26T22:12:51.128Z,37.60
2018-11-26T22:15:19.550Z,33.77
2018-11-26T22:17:47.989Z,36.43
2018-11-26T22:20:17.928Z,34.70
2018-11-26T22:22:46.372Z,34.57
2018-11-26T22:25:14.784Z,34.90
2018-11-26T22:27:43.228Z,38.17
2018-11-26T22:30:16.775Z,35.80
2018-11-26T22:32:45.224Z,37.17
2018-11-26T22:35:13.663Z,35.33
2018-11-26T23:51:38.128Z,34.87
2018-11-26T23:54:06.572Z,36.57
2018-11-26T23:56:34.976Z,37.43
2018-11-26T23:59:03.389Z,34.80
